sensor_id;sensor_type;location;lat;lon;timestamp;temperature;humidity
15083;DHT22;7640;53.116;6.878;2022-08-25T00:00:17;22.40;99.90
15083;DHT22;7640;53.116;6.878;2022-08-25T00:02:46;22.40;99.90
15083;DHT22;7640;53.116;6.878;2022-08-25T00:05:25;22.40;99.90
15083;DHT22;7640;53.116;6.878;2022-08-25T00:07:55;22.40;99.90
15083;DHT22;7640;53.116;6.878;2022-08-25T00:10:23;22.30;99.90
15083;DHT22;7640;53.116;6.878;2022-08-25T00:12:51;22.30;99.90
15083;DHT22;7640;53.116;6.878;2022-08-25T00:15:20;22.30;99.90
15083;DHT22;7640;53.116;6.878;2022-08-25T00:17:49;22.20;99.90
15083;DHT22;7640;53.116;6.878;2022-08-25T00:20:18;22.10;99.90
15083;DHT22;7640;53.116;6.878;2022-08-25T00:22:47;22.20;99.90
15083;DHT22;7640;53.116;6.878;2022-08-25T00:25:16;22.10;99.90
15083;DHT22;7640;53.116;6.878;2022-08-25T00:27:45;22.10;99.90
15083;DHT22;7640;53.116;6.878;2022-08-25T00:30:14;22.10;99.90
15083;DHT22;7640;53.116;6.878;2022-08-25T00:32:43;22.00;99.90
15083;DHT22;7640;53.116;6.878;2022-08-25T00:35:21;22.00;99.90
15083;DHT22;7640;53.116;6.878;2022-08-25T00:37:51;22.00;99.90
15083;DHT22;7640;53.116;6.878;2022-08-25T00:40:20;22.00;99.90
15083;DHT22;7640;53.116;6.878;2022-08-25T00:42:49;21.90;99.90
15083;DHT22;7640;53.116;6.878;2022-08-25T00:45:18;21.90;99.90
15083;DHT22;7640;53.116;6.878;2022-08-25T00:47:46;21.90;99.90
15083;DHT22;7640;53.116;6.878;2022-08-25T00:50:15;21.90;99.90
15083;DHT22;7640;53.116;6.878;2022-08-25T00:52:46;21.80;99.90
15083;DHT22;7640;53.116;6.878;2022-08-25T00:55:21;21.80;99.90
15083;DHT22;7640;53.116;6.878;2022-08-25T00:57:55;21.80;99.90
15083;DHT22;7640;53.116;6.878;2022-08-25T01:00:27;21.80;99.90
15083;DHT22;7640;53.116;6.878;2022-08-25T01:02:57;21.70;99.90
15083;DHT22;7640;53.116;6.878;2022-08-25T01:05:26;21.70;99.90
15083;DHT22;7640;53.116;6.878;2022-08-25T01:07:56;21.70;99.90
15083;DHT22;7640;53.116;6.878;2022-08-25T01:10:29;21.60;99.90
15083;DHT22;7640;53.116;6.878;2022-08-25T01:13:02;21.60;99.90
15083;DHT22;7640;53.116;6.878;2022-08-25T01:15:42;21.60;99.90
15083;DHT22;7640;53.116;6.878;2022-08-25T01:18:10;21.60;99.90
15083;DHT22;7640;53.116;6.878;2022-08-25T01:20:39;21.60;99.90
15083;DHT22;7640;53.116;6.878;2022-08-25T01:23:09;21.70;99.90
15083;DHT22;7640;53.116;6.878;2022-08-25T01:25:44;21.60;99.90
15083;DHT22;7640;53.116;6.878;2022-08-25T01:28:17;21.60;99.90
15083;DHT22;7640;53.116;6.878;2022-08-25T01:30:45;21.60;99.90
15083;DHT22;7640;53.116;6.878;2022-08-25T01:33:16;21.60;99.90
15083;DHT22;7640;53.116;6.878;2022-08-25T01:35:45;21.60;99.90
15083;DHT22;7640;53.116;6.878;2022-08-25T01:38:17;21.60;99.90
15083;DHT22;7640;53.116;6.878;2022-08-25T01:40:48;21.50;99.90
15083;DHT22;7640;53.116;6.878;2022-08-25T01:43:29;21.50;99.90
15083;DHT22;7640;53.116;6.878;2022-08-25T01:46:01;21.50;99.90
15083;DHT22;7640;53.116;6.878;2022-08-25T01:48:33;21.40;99.90
15083;DHT22;7640;53.116;6.878;2022-08-25T01:51:02;21.40;99.90
15083;DHT22;7640;53.116;6.878;2022-08-25T01:53:32;21.40;99.90
15083;DHT22;7640;53.116;6.878;2022-08-25T01:56:07;21.30;99.90
15083;DHT22;7640;53.116;6.878;2022-08-25T01:58:39;21.30;99.90
15083;DHT22;7640;53.116;6.878;2022-08-25T02:01:11;21.60;99.90
15083;DHT22;7640;53.116;6.878;2022-08-25T02:03:44;21.20;99.90
15083;DHT22;7640;53.116;6.878;2022-08-25T02:06:17;21.20;99.90
15083;DHT22;7640;53.116;6.878;2022-08-25T02:08:58;21.10;99.90
15083;DHT22;7640;53.116;6.878;2022-08-25T02:11:27;21.10;99.90
15083;DHT22;7640;53.116;6.878;2022-08-25T02:13:56;21.00;99.90
15083;DHT22;7640;53.116;6.878;2022-08-25T02:16:27;21.00;99.90
15083;DHT22;7640;53.116;6.878;2022-08-25T02:18:58;21.00;99.90
15083;DHT22;7640;53.116;6.878;2022-08-25T02:21:27;20.90;99.90
15083;DHT22;7640;53.116;6.878;2022-08-25T02:23:58;20.90;99.90
15083;DHT22;7640;53.116;6.878;2022-08-25T02:26:27;20.90;99.90
15083;DHT22;7640;53.116;6.878;2022-08-25T02:28:55;20.80;99.90
15083;DHT22;7640;53.116;6.878;2022-08-25T02:31:24;20.80;99.90
15083;DHT22;7640;53.116;6.878;2022-08-25T02:33:53;20.80;99.90
15083;DHT22;7640;53.116;6.878;2022-08-25T02:36:22;20.80;99.90
15083;DHT22;7640;53.116;6.878;2022-08-25T02:38:50;20.70;99.90
15083;DHT22;7640;53.116;6.878;2022-08-25T02:41:23;20.70;99.90
15083;DHT22;7640;53.116;6.878;2022-08-25T02:43:57;20.70;99.90
15083;DHT22;7640;53.116;6.878;2022-08-25T02:46:26;20.70;99.90
15083;DHT22;7640;53.116;6.878;2022-08-25T02:48:55;20.60;99.90
15083;DHT22;7640;53.116;6.878;2022-08-25T02:51:25;20.60;99.90
15083;DHT22;7640;53.116;6.878;2022-08-25T02:53:56;20.60;99.90
15083;DHT22;7640;53.116;6.878;2022-08-25T02:56:27;20.60;99.90
15083;DHT22;7640;53.116;6.878;2022-08-25T02:58:56;20.60;99.90
15083;DHT22;7640;53.116;6.878;2022-08-25T03:01:24;20.50;99.90
15083;DHT22;7640;53.116;6.878;2022-08-25T03:03:55;20.60;99.90
15083;DHT22;7640;53.116;6.878;2022-08-25T03:06:24;20.50;99.90
15083;DHT22;7640;53.116;6.878;2022-08-25T03:08:53;20.50;99.90
15083;DHT22;7640;53.116;6.878;2022-08-25T03:11:22;20.50;99.90
15083;DHT22;7640;53.116;6.878;2022-08-25T03:13:52;20.50;99.90
15083;DHT22;7640;53.116;6.878;2022-08-25T03:16:21;20.40;99.90
15083;DHT22;7640;53.116;6.878;2022-08-25T03:18:53;20.40;99.90
15083;DHT22;7640;53.116;6.878;2022-08-25T03:21:23;20.40;99.90
15083;DHT22;7640;53.116;6.878;2022-08-25T03:23:51;20.40;99.90
15083;DHT22;7640;53.116;6.878;2022-08-25T03:26:20;20.30;99.90
15083;DHT22;7640;53.116;6.878;2022-08-25T03:29:07;20.30;99.90
15083;DHT22;7640;53.116;6.878;2022-08-25T03:31:36;20.20;99.90
15083;DHT22;7640;53.116;6.878;2022-08-25T03:34:05;20.20;99.90
15083;DHT22;7640;53.116;6.878;2022-08-25T03:36:34;20.20;99.90
15083;DHT22;7640;53.116;6.878;2022-08-25T03:39:03;20.20;99.90
15083;DHT22;7640;53.116;6.878;2022-08-25T03:41:31;20.20;99.90
15083;DHT22;7640;53.116;6.878;2022-08-25T03:44:01;20.10;99.90
15083;DHT22;7640;53.116;6.878;2022-08-25T03:46:33;20.10;99.90
15083;DHT22;7640;53.116;6.878;2022-08-25T03:49:05;20.10;99.90
15083;DHT22;7640;53.116;6.878;2022-08-25T03:51:36;20.10;99.90
15083;DHT22;7640;53.116;6.878;2022-08-25T03:54:07;20.00;99.90
15083;DHT22;7640;53.116;6.878;2022-08-25T03:56:37;20.00;99.90
15083;DHT22;7640;53.116;6.878;2022-08-25T03:59:06;20.00;99.90
15083;DHT22;7640;53.116;6.878;2022-08-25T04:01:37;20.00;99.90
15083;DHT22;7640;53.116;6.878;2022-08-25T04:04:09;20.00;99.90
15083;DHT22;7640;53.116;6.878;2022-08-25T04:06:39;19.90;99.90
15083;DHT22;7640;53.116;6.878;2022-08-25T04:09:07;19.90;99.90
15083;DHT22;7640;53.116;6.878;2022-08-25T04:11:36;19.90;99.90
15083;DHT22;7640;53.116;6.878;2022-08-25T04:14:08;19.90;99.90
15083;DHT22;7640;53.116;6.878;2022-08-25T04:16:43;19.80;99.90
15083;DHT22;7640;53.116;6.878;2022-08-25T04:19:11;19.80;99.90
15083;DHT22;7640;53.116;6.878;2022-08-25T04:21:40;19.80;99.90
15083;DHT22;7640;53.116;6.878;2022-08-25T04:24:10;19.80;99.90
15083;DHT22;7640;53.116;6.878;2022-08-25T04:26:42;19.80;99.90
15083;DHT22;7640;53.116;6.878;2022-08-25T04:29:13;19.80;99.90
15083;DHT22;7640;53.116;6.878;2022-08-25T04:31:46;19.80;99.90
15083;DHT22;7640;53.116;6.878;2022-08-25T04:34:16;19.70;99.90
15083;DHT22;7640;53.116;6.878;2022-08-25T04:36:58;19.80;99.90
15083;DHT22;7640;53.116;6.878;2022-08-25T04:39:27;19.70;99.90
15083;DHT22;7640;53.116;6.878;2022-08-25T04:41:56;19.50;99.90
15083;DHT22;7640;53.116;6.878;2022-08-25T04:44:26;19.70;99.90
15083;DHT22;7640;53.116;6.878;2022-08-25T04:46:56;19.70;99.90
15083;DHT22;7640;53.116;6.878;2022-08-25T04:49:25;19.80;99.90
15083;DHT22;7640;53.116;6.878;2022-08-25T04:51:54;19.70;99.90
15083;DHT22;7640;53.116;6.878;2022-08-25T04:54:23;19.70;99.90
15083;DHT22;7640;53.116;6.878;2022-08-25T04:56:51;19.80;99.90
15083;DHT22;7640;53.116;6.878;2022-08-25T04:59:25;19.80;99.90
15083;DHT22;7640;53.116;6.878;2022-08-25T05:01:58;19.80;99.90
15083;DHT22;7640;53.116;6.878;2022-08-25T05:04:28;19.80;99.90
15083;DHT22;7640;53.116;6.878;2022-08-25T05:06:58;19.80;99.90
15083;DHT22;7640;53.116;6.878;2022-08-25T05:09:26;19.80;99.90
15083;DHT22;7640;53.116;6.878;2022-08-25T05:11:58;19.80;99.90
15083;DHT22;7640;53.116;6.878;2022-08-25T05:14:28;19.90;99.90
15083;DHT22;7640;53.116;6.878;2022-08-25T05:16:58;19.90;99.90
15083;DHT22;7640;53.116;6.878;2022-08-25T05:19:28;19.90;99.90
15083;DHT22;7640;53.116;6.878;2022-08-25T05:21:56;19.90;99.90
15083;DHT22;7640;53.116;6.878;2022-08-25T05:24:24;19.90;99.90
15083;DHT22;7640;53.116;6.878;2022-08-25T05:26:53;20.00;99.90
15083;DHT22;7640;53.116;6.878;2022-08-25T05:29:22;20.00;99.90
15083;DHT22;7640;53.116;6.878;2022-08-25T05:31:50;20.10;99.90
15083;DHT22;7640;53.116;6.878;2022-08-25T05:34:21;20.10;99.90
15083;DHT22;7640;53.116;6.878;2022-08-25T05:36:50;20.20;99.90
15083;DHT22;7640;53.116;6.878;2022-08-25T05:39:18;20.20;99.90
15083;DHT22;7640;53.116;6.878;2022-08-25T05:41:46;20.20;99.90
15083;DHT22;7640;53.116;6.878;2022-08-25T05:44:14;20.30;99.90
15083;DHT22;7640;53.116;6.878;2022-08-25T05:46:47;20.40;99.90
15083;DHT22;7640;53.116;6.878;2022-08-25T05:49:16;20.40;99.90
15083;DHT22;7640;53.116;6.878;2022-08-25T05:51:45;20.50;99.90
15083;DHT22;7640;53.116;6.878;2022-08-25T05:54:14;20.50;99.90
15083;DHT22;7640;53.116;6.878;2022-08-25T05:56:42;20.60;99.90
15083;DHT22;7640;53.116;6.878;2022-08-25T05:59:12;20.70;99.90
15083;DHT22;7640;53.116;6.878;2022-08-25T06:01:40;20.70;99.90
15083;DHT22;7640;53.116;6.878;2022-08-25T06:04:26;20.80;99.90
15083;DHT22;7640;53.116;6.878;2022-08-25T06:06:55;20.90;99.90
15083;DHT22;7640;53.116;6.878;2022-08-25T06:09:23;20.90;99.90
15083;DHT22;7640;53.116;6.878;2022-08-25T06:11:52;21.00;99.90
15083;DHT22;7640;53.116;6.878;2022-08-25T06:14:22;21.10;99.90
15083;DHT22;7640;53.116;6.878;2022-08-25T06:16:51;21.10;99.90
15083;DHT22;7640;53.116;6.878;2022-08-25T06:19:19;21.00;99.90
15083;DHT22;7640;53.116;6.878;2022-08-25T06:21:52;21.30;99.90
15083;DHT22;7640;53.116;6.878;2022-08-25T06:24:23;21.30;99.90
15083;DHT22;7640;53.116;6.878;2022-08-25T06:26:51;21.30;99.90
15083;DHT22;7640;53.116;6.878;2022-08-25T06:29:19;21.50;99.90
15083;DHT22;7640;53.116;6.878;2022-08-25T06:31:47;21.60;99.90
15083;DHT22;7640;53.116;6.878;2022-08-25T06:34:16;21.70;99.90
15083;DHT22;7640;53.116;6.878;2022-08-25T06:36:49;21.70;99.90
15083;DHT22;7640;53.116;6.878;2022-08-25T06:39:17;21.80;99.90
15083;DHT22;7640;53.116;6.878;2022-08-25T06:41:51;21.90;99.90
15083;DHT22;7640;53.116;6.878;2022-08-25T06:44:20;22.00;99.90
15083;DHT22;7640;53.116;6.878;2022-08-25T06:46:48;22.00;99.90
15083;DHT22;7640;53.116;6.878;2022-08-25T06:49:17;22.20;99.90
15083;DHT22;7640;53.116;6.878;2022-08-25T06:51:45;22.20;99.90
15083;DHT22;7640;53.116;6.878;2022-08-25T06:54:14;22.30;99.90
15083;DHT22;7640;53.116;6.878;2022-08-25T06:56:42;22.40;99.90
15083;DHT22;7640;53.116;6.878;2022-08-25T06:59:12;22.50;99.90
15083;DHT22;7640;53.116;6.878;2022-08-25T07:01:40;22.60;99.90
15083;DHT22;7640;53.116;6.878;2022-08-25T07:04:10;22.70;99.90
15083;DHT22;7640;53.116;6.878;2022-08-25T07:06:40;22.80;99.90
15083;DHT22;7640;53.116;6.878;2022-08-25T07:09:10;22.90;99.90
15083;DHT22;7640;53.116;6.878;2022-08-25T07:11:38;22.90;99.90
15083;DHT22;7640;53.116;6.878;2022-08-25T07:14:08;23.00;99.90
15083;DHT22;7640;53.116;6.878;2022-08-25T07:16:39;23.10;99.90
15083;DHT22;7640;53.116;6.878;2022-08-25T07:19:15;23.20;99.90
15083;DHT22;7640;53.116;6.878;2022-08-25T07:21:49;23.20;99.90
15083;DHT22;7640;53.116;6.878;2022-08-25T07:24:18;23.30;99.90
15083;DHT22;7640;53.116;6.878;2022-08-25T07:26:47;23.40;99.90
15083;DHT22;7640;53.116;6.878;2022-08-25T07:29:18;23.50;99.90
15083;DHT22;7640;53.116;6.878;2022-08-25T07:32:00;23.60;99.90
15083;DHT22;7640;53.116;6.878;2022-08-25T07:34:30;23.80;99.90
15083;DHT22;7640;53.116;6.878;2022-08-25T07:37:19;23.90;99.90
15083;DHT22;7640;53.116;6.878;2022-08-25T07:40:10;24.00;99.90
15083;DHT22;7640;53.116;6.878;2022-08-25T07:42:40;24.10;99.90
15083;DHT22;7640;53.116;6.878;2022-08-25T07:45:10;24.20;99.90
15083;DHT22;7640;53.116;6.878;2022-08-25T07:47:42;24.30;99.90
15083;DHT22;7640;53.116;6.878;2022-08-25T07:50:12;24.40;99.90
15083;DHT22;7640;53.116;6.878;2022-08-25T07:52:40;24.50;99.90
15083;DHT22;7640;53.116;6.878;2022-08-25T07:55:09;24.60;99.90
15083;DHT22;7640;53.116;6.878;2022-08-25T07:57:43;24.70;99.90
15083;DHT22;7640;53.116;6.878;2022-08-25T08:00:19;24.90;99.90
15083;DHT22;7640;53.116;6.878;2022-08-25T08:02:51;25.00;99.90
15083;DHT22;7640;53.116;6.878;2022-08-25T08:05:19;25.10;99.90
15083;DHT22;7640;53.116;6.878;2022-08-25T08:07:50;25.20;99.90
15083;DHT22;7640;53.116;6.878;2022-08-25T08:10:18;25.40;99.90
15083;DHT22;7640;53.116;6.878;2022-08-25T08:13:08;25.50;99.90
15083;DHT22;7640;53.116;6.878;2022-08-25T08:15:43;25.60;99.90
15083;DHT22;7640;53.116;6.878;2022-08-25T08:18:13;25.70;99.90
15083;DHT22;7640;53.116;6.878;2022-08-25T08:20:43;25.90;99.90
15083;DHT22;7640;53.116;6.878;2022-08-25T08:23:11;26.00;99.90
15083;DHT22;7640;53.116;6.878;2022-08-25T08:25:40;26.10;99.90
15083;DHT22;7640;53.116;6.878;2022-08-25T08:28:08;26.20;99.90
15083;DHT22;7640;53.116;6.878;2022-08-25T08:30:37;26.40;99.90
15083;DHT22;7640;53.116;6.878;2022-08-25T08:33:21;26.40;99.90
15083;DHT22;7640;53.116;6.878;2022-08-25T08:35:55;26.60;99.90
15083;DHT22;7640;53.116;6.878;2022-08-25T08:38:24;26.70;99.90
15083;DHT22;7640;53.116;6.878;2022-08-25T08:40:59;26.80;99.90
15083;DHT22;7640;53.116;6.878;2022-08-25T08:43:55;26.90;99.90
15083;DHT22;7640;53.116;6.878;2022-08-25T08:49:28;27.10;99.90
15083;DHT22;7640;53.116;6.878;2022-08-25T08:52:02;27.20;99.90
15083;DHT22;7640;53.116;6.878;2022-08-25T08:54:34;27.30;99.90
15083;DHT22;7640;53.116;6.878;2022-08-25T08:57:10;27.50;99.90
15083;DHT22;7640;53.116;6.878;2022-08-25T08:59:48;27.60;99.90
15083;DHT22;7640;53.116;6.878;2022-08-25T09:02:27;27.80;99.90
15083;DHT22;7640;53.116;6.878;2022-08-25T09:05:19;27.90;99.90
15083;DHT22;7640;53.116;6.878;2022-08-25T09:07:53;28.00;99.90
15083;DHT22;7640;53.116;6.878;2022-08-25T09:10:25;28.10;99.90
15083;DHT22;7640;53.116;6.878;2022-08-25T09:13:03;28.20;99.90
15083;DHT22;7640;53.116;6.878;2022-08-25T09:15:44;28.30;99.90
15083;DHT22;7640;53.116;6.878;2022-08-25T09:18:41;28.40;99.90
15083;DHT22;7640;53.116;6.878;2022-08-25T09:21:27;28.50;99.90
15083;DHT22;7640;53.116;6.878;2022-08-25T09:24:12;28.70;99.90
15083;DHT22;7640;53.116;6.878;2022-08-25T09:26:59;28.80;99.90
15083;DHT22;7640;53.116;6.878;2022-08-25T09:29:42;28.90;99.90
15083;DHT22;7640;53.116;6.878;2022-08-25T09:32:16;29.00;99.90
15083;DHT22;7640;53.116;6.878;2022-08-25T09:34:51;29.10;99.90
15083;DHT22;7640;53.116;6.878;2022-08-25T09:37:24;29.20;99.90
15083;DHT22;7640;53.116;6.878;2022-08-25T09:39:54;29.30;99.90
15083;DHT22;7640;53.116;6.878;2022-08-25T09:42:45;29.40;99.90
15083;DHT22;7640;53.116;6.878;2022-08-25T09:45:32;29.50;99.90
15083;DHT22;7640;53.116;6.878;2022-08-25T09:48:19;29.60;99.90
15083;DHT22;7640;53.116;6.878;2022-08-25T09:50:53;29.70;99.90
15083;DHT22;7640;53.116;6.878;2022-08-25T09:53:27;29.80;99.90
15083;DHT22;7640;53.116;6.878;2022-08-25T09:56:01;30.00;99.90
15083;DHT22;7640;53.116;6.878;2022-08-25T09:58:32;30.10;99.90
15083;DHT22;7640;53.116;6.878;2022-08-25T10:01:10;30.10;99.90
15083;DHT22;7640;53.116;6.878;2022-08-25T10:03:58;30.20;99.90
15083;DHT22;7640;53.116;6.878;2022-08-25T10:06:32;30.30;99.90
15083;DHT22;7640;53.116;6.878;2022-08-25T10:09:06;30.30;99.30
15083;DHT22;7640;53.116;6.878;2022-08-25T10:11:40;30.40;99.10
15083;DHT22;7640;53.116;6.878;2022-08-25T10:14:19;30.50;99.00
15083;DHT22;7640;53.116;6.878;2022-08-25T10:16:50;30.60;98.90
15083;DHT22;7640;53.116;6.878;2022-08-25T10:19:26;30.70;98.50
15083;DHT22;7640;53.116;6.878;2022-08-25T10:22:04;30.90;98.20
15083;DHT22;7640;53.116;6.878;2022-08-25T10:24:39;30.90;98.00
15083;DHT22;7640;53.116;6.878;2022-08-25T10:27:19;31.00;97.50
15083;DHT22;7640;53.116;6.878;2022-08-25T10:30:02;31.10;97.40
15083;DHT22;7640;53.116;6.878;2022-08-25T10:32:49;31.10;97.40
15083;DHT22;7640;53.116;6.878;2022-08-25T10:35:34;31.20;97.20
15083;DHT22;7640;53.116;6.878;2022-08-25T10:38:27;31.20;96.60
15083;DHT22;7640;53.116;6.878;2022-08-25T10:41:21;31.30;96.10
15083;DHT22;7640;53.116;6.878;2022-08-25T10:44:01;31.30;96.00
15083;DHT22;7640;53.116;6.878;2022-08-25T10:47:05;31.40;96.30
15083;DHT22;7640;53.116;6.878;2022-08-25T10:49:45;31.60;96.00
15083;DHT22;7640;53.116;6.878;2022-08-25T10:52:20;31.70;95.70
15083;DHT22;7640;53.116;6.878;2022-08-25T10:54:57;31.80;95.10
15083;DHT22;7640;53.116;6.878;2022-08-25T10:57:35;31.80;94.90
15083;DHT22;7640;53.116;6.878;2022-08-25T11:00:11;31.90;94.80
15083;DHT22;7640;53.116;6.878;2022-08-25T11:03:21;31.90;94.60
15083;DHT22;7640;53.116;6.878;2022-08-25T11:06:04;32.10;93.50
15083;DHT22;7640;53.116;6.878;2022-08-25T11:08:38;32.10;93.60
15083;DHT22;7640;53.116;6.878;2022-08-25T11:11:11;32.20;92.50
15083;DHT22;7640;53.116;6.878;2022-08-25T11:13:51;32.20;91.60
15083;DHT22;7640;53.116;6.878;2022-08-25T11:16:32;32.20;91.80
15083;DHT22;7640;53.116;6.878;2022-08-25T11:19:12;32.30;91.80
15083;DHT22;7640;53.116;6.878;2022-08-25T11:21:50;32.30;91.20
15083;DHT22;7640;53.116;6.878;2022-08-25T11:24:46;32.40;91.50
15083;DHT22;7640;53.116;6.878;2022-08-25T11:27:22;32.50;90.60
15083;DHT22;7640;53.116;6.878;2022-08-25T11:30:06;32.60;90.70
15083;DHT22;7640;53.116;6.878;2022-08-25T11:32:37;32.60;90.80
15083;DHT22;7640;53.116;6.878;2022-08-25T11:35:08;32.70;90.60
15083;DHT22;7640;53.116;6.878;2022-08-25T11:37:45;32.80;90.30
15083;DHT22;7640;53.116;6.878;2022-08-25T11:40:34;32.90;89.50
15083;DHT22;7640;53.116;6.878;2022-08-25T11:43:23;33.00;89.50
15083;DHT22;7640;53.116;6.878;2022-08-25T11:46:13;33.10;89.80
15083;DHT22;7640;53.116;6.878;2022-08-25T11:48:59;33.30;87.30
15083;DHT22;7640;53.116;6.878;2022-08-25T11:51:41;33.40;87.40
15083;DHT22;7640;53.116;6.878;2022-08-25T11:54:20;33.60;87.20
15083;DHT22;7640;53.116;6.878;2022-08-25T11:56:55;33.80;87.30
15083;DHT22;7640;53.116;6.878;2022-08-25T12:00:00;34.10;86.50
15083;DHT22;7640;53.116;6.878;2022-08-25T12:02:38;34.30;84.50
15083;DHT22;7640;53.116;6.878;2022-08-25T12:05:11;34.50;83.80
15083;DHT22;7640;53.116;6.878;2022-08-25T12:08:02;34.70;82.60
15083;DHT22;7640;53.116;6.878;2022-08-25T12:10:54;34.90;81.20
15083;DHT22;7640;53.116;6.878;2022-08-25T12:13:42;35.00;81.10
15083;DHT22;7640;53.116;6.878;2022-08-25T12:16:38;35.20;81.80
15083;DHT22;7640;53.116;6.878;2022-08-25T12:19:30;35.50;80.10
15083;DHT22;7640;53.116;6.878;2022-08-25T12:22:38;35.80;79.60
15083;DHT22;7640;53.116;6.878;2022-08-25T12:28:30;36.30;77.60
15083;DHT22;7640;53.116;6.878;2022-08-25T12:31:14;36.60;77.60
15083;DHT22;7640;53.116;6.878;2022-08-25T12:33:54;36.90;75.20
15083;DHT22;7640;53.116;6.878;2022-08-25T12:36:32;37.10;74.80
15083;DHT22;7640;53.116;6.878;2022-08-25T12:39:15;37.20;74.30
15083;DHT22;7640;53.116;6.878;2022-08-25T12:41:53;37.40;74.60
15083;DHT22;7640;53.116;6.878;2022-08-25T12:44:36;37.60;73.80
15083;DHT22;7640;53.116;6.878;2022-08-25T12:47:24;37.80;74.00
15083;DHT22;7640;53.116;6.878;2022-08-25T12:50:29;38.10;73.80
15083;DHT22;7640;53.116;6.878;2022-08-25T12:53:17;38.30;73.50
15083;DHT22;7640;53.116;6.878;2022-08-25T12:55:55;38.60;72.50
15083;DHT22;7640;53.116;6.878;2022-08-25T12:58:35;38.80;71.10
15083;DHT22;7640;53.116;6.878;2022-08-25T13:01:34;38.80;71.60
15083;DHT22;7640;53.116;6.878;2022-08-25T13:07:33;39.40;68.80
15083;DHT22;7640;53.116;6.878;2022-08-25T13:10:26;39.60;67.40
15083;DHT22;7640;53.116;6.878;2022-08-25T13:13:04;39.70;65.90
15083;DHT22;7640;53.116;6.878;2022-08-25T13:15:42;39.60;66.00
15083;DHT22;7640;53.116;6.878;2022-08-25T13:18:20;39.60;65.50
15083;DHT22;7640;53.116;6.878;2022-08-25T13:20:52;39.80;67.00
15083;DHT22;7640;53.116;6.878;2022-08-25T13:23:25;40.00;66.30
15083;DHT22;7640;53.116;6.878;2022-08-25T13:25:56;40.20;65.10
15083;DHT22;7640;53.116;6.878;2022-08-25T13:28:28;40.40;65.40
15083;DHT22;7640;53.116;6.878;2022-08-25T13:31:03;40.70;64.90
15083;DHT22;7640;53.116;6.878;2022-08-25T13:33:35;40.90;63.40
15083;DHT22;7640;53.116;6.878;2022-08-25T13:36:05;41.20;63.80
15083;DHT22;7640;53.116;6.878;2022-08-25T13:38:51;41.30;62.30
15083;DHT22;7640;53.116;6.878;2022-08-25T13:41:24;41.30;61.70
15083;DHT22;7640;53.116;6.878;2022-08-25T13:43:55;41.50;62.70
15083;DHT22;7640;53.116;6.878;2022-08-25T13:46:28;41.70;61.00
15083;DHT22;7640;53.116;6.878;2022-08-25T13:49:03;41.90;60.30
15083;DHT22;7640;53.116;6.878;2022-08-25T13:51:36;42.00;58.70
15083;DHT22;7640;53.116;6.878;2022-08-25T13:54:07;42.20;58.60
15083;DHT22;7640;53.116;6.878;2022-08-25T13:56:52;42.10;57.80
15083;DHT22;7640;53.116;6.878;2022-08-25T13:59:27;42.10;58.60
15083;DHT22;7640;53.116;6.878;2022-08-25T14:02:07;42.30;59.60
15083;DHT22;7640;53.116;6.878;2022-08-25T14:04:47;42.40;59.30
15083;DHT22;7640;53.116;6.878;2022-08-25T14:07:26;42.70;59.10
15083;DHT22;7640;53.116;6.878;2022-08-25T14:10:03;43.00;58.30
15083;DHT22;7640;53.116;6.878;2022-08-25T14:12:38;43.30;58.00
15083;DHT22;7640;53.116;6.878;2022-08-25T14:15:26;43.50;57.30
15083;DHT22;7640;53.116;6.878;2022-08-25T14:18:04;43.60;57.10
15083;DHT22;7640;53.116;6.878;2022-08-25T14:20:44;43.90;56.50
15083;DHT22;7640;53.116;6.878;2022-08-25T14:23:18;44.10;56.30
15083;DHT22;7640;53.116;6.878;2022-08-25T14:25:48;44.20;56.50
15083;DHT22;7640;53.116;6.878;2022-08-25T14:28:21;44.40;56.20
15083;DHT22;7640;53.116;6.878;2022-08-25T14:30:53;44.60;55.20
15083;DHT22;7640;53.116;6.878;2022-08-25T14:33:24;44.80;54.60
15083;DHT22;7640;53.116;6.878;2022-08-25T14:35:57;45.10;54.70
15083;DHT22;7640;53.116;6.878;2022-08-25T14:38:28;45.30;54.40
15083;DHT22;7640;53.116;6.878;2022-08-25T14:40:56;45.10;53.50
15083;DHT22;7640;53.116;6.878;2022-08-25T14:43:26;44.80;54.20
15083;DHT22;7640;53.116;6.878;2022-08-25T14:45:58;44.90;54.20
15083;DHT22;7640;53.116;6.878;2022-08-25T14:48:30;45.00;55.80
15083;DHT22;7640;53.116;6.878;2022-08-25T14:51:03;45.20;55.10
15083;DHT22;7640;53.116;6.878;2022-08-25T14:53:32;45.40;54.70
15083;DHT22;7640;53.116;6.878;2022-08-25T14:56:00;45.60;54.40
15083;DHT22;7640;53.116;6.878;2022-08-25T14:58:37;45.80;54.50
15083;DHT22;7640;53.116;6.878;2022-08-25T15:01:21;45.90;54.90
15083;DHT22;7640;53.116;6.878;2022-08-25T15:03:59;46.00;53.80
15083;DHT22;7640;53.116;6.878;2022-08-25T15:06:29;46.10;52.90
15083;DHT22;7640;53.116;6.878;2022-08-25T15:08:58;46.10;53.70
15083;DHT22;7640;53.116;6.878;2022-08-25T15:11:39;46.30;53.20
15083;DHT22;7640;53.116;6.878;2022-08-25T15:14:12;46.60;53.40
15083;DHT22;7640;53.116;6.878;2022-08-25T15:16:44;46.80;53.40
15083;DHT22;7640;53.116;6.878;2022-08-25T15:19:16;46.80;53.20
15083;DHT22;7640;53.116;6.878;2022-08-25T15:21:46;46.80;52.90
15083;DHT22;7640;53.116;6.878;2022-08-25T15:24:16;46.80;52.20
15083;DHT22;7640;53.116;6.878;2022-08-25T15:26:46;46.80;52.50
15083;DHT22;7640;53.116;6.878;2022-08-25T15:29:25;46.90;52.10
15083;DHT22;7640;53.116;6.878;2022-08-25T15:31:55;47.00;52.40
15083;DHT22;7640;53.116;6.878;2022-08-25T15:34:24;47.10;52.10
15083;DHT22;7640;53.116;6.878;2022-08-25T15:36:54;47.10;52.20
15083;DHT22;7640;53.116;6.878;2022-08-25T15:39:24;47.10;51.50
15083;DHT22;7640;53.116;6.878;2022-08-25T15:41:53;47.20;51.80
15083;DHT22;7640;53.116;6.878;2022-08-25T15:44:24;47.40;51.80
15083;DHT22;7640;53.116;6.878;2022-08-25T15:46:55;47.40;51.80
15083;DHT22;7640;53.116;6.878;2022-08-25T15:49:25;47.50;51.90
15083;DHT22;7640;53.116;6.878;2022-08-25T15:51:57;47.60;51.30
15083;DHT22;7640;53.116;6.878;2022-08-25T15:54:29;47.60;51.20
15083;DHT22;7640;53.116;6.878;2022-08-25T15:56:58;47.80;50.80
15083;DHT22;7640;53.116;6.878;2022-08-25T15:59:28;47.80;51.40
15083;DHT22;7640;53.116;6.878;2022-08-25T16:01:57;48.00;51.20
15083;DHT22;7640;53.116;6.878;2022-08-25T16:04:27;48.00;51.10
15083;DHT22;7640;53.116;6.878;2022-08-25T16:06:56;48.10;51.30
15083;DHT22;7640;53.116;6.878;2022-08-25T16:09:25;48.10;50.90
15083;DHT22;7640;53.116;6.878;2022-08-25T16:11:53;48.10;51.20
15083;DHT22;7640;53.116;6.878;2022-08-25T16:14:27;48.20;51.30
15083;DHT22;7640;53.116;6.878;2022-08-25T16:16:55;48.20;50.80
15083;DHT22;7640;53.116;6.878;2022-08-25T16:19:25;48.00;50.60
15083;DHT22;7640;53.116;6.878;2022-08-25T16:21:54;47.80;50.80
15083;DHT22;7640;53.116;6.878;2022-08-25T16:24:22;47.90;51.00
15083;DHT22;7640;53.116;6.878;2022-08-25T16:26:52;48.10;50.40
15083;DHT22;7640;53.116;6.878;2022-08-25T16:29:39;48.10;50.70
15083;DHT22;7640;53.116;6.878;2022-08-25T16:32:11;48.00;50.60
15083;DHT22;7640;53.116;6.878;2022-08-25T16:34:42;47.90;50.90
15083;DHT22;7640;53.116;6.878;2022-08-25T16:37:10;47.90;50.70